Airport View

Enter AWOS ICAO identifier for current METAR.

ex. KFNL

K6I2 290345Z AUTO 17004KT 10SM CLR 12/12 A2996 RMK AO2

29 Sep 2020 04:16

Frequency: 119.725

Phone: 866-754-5623

Other Area AWOS: KBRY - KAAS - KDVK - KEKX

TAF AMD KFTK 282105Z 2821/3001 30010KT 9999 BKN010 OVC020 QNH2982INS BECMG 2821/2822 31008KT 9999 BKN020 BKN050 QNH2983INS BECMG 2901/2902 31006KT 9999 SCT030 QNH2985INS BECMG 2905/2906 VRB03KT 3200 BR SCT250 QNH2990INS BECMG 2912/2913 VRB06KT 9999 NSW FEW250 QNH2992INS TX18/2919Z TN10/2912Z LAST NO AMDS AFT 2903 NEXT 2911